sensor_id;sensor_type;location;lat;lon;timestamp;pressure;altitude;pressure_sealevel;temperature;humidity
54910;BME280;63189;51.240;9.964;2022-10-30T00:01:20;98232.03;;;14.21;94.68
54910;BME280;63189;51.240;9.964;2022-10-30T00:03:45;98226.78;;;14.21;94.76
54910;BME280;63189;51.240;9.964;2022-10-30T00:06:10;98226.78;;;14.21;94.93
54910;BME280;63189;51.240;9.964;2022-10-30T00:08:36;98219.84;;;14.20;94.96
54910;BME280;63189;51.240;9.964;2022-10-30T00:11:08;98218.78;;;14.24;94.99
54910;BME280;63189;51.240;9.964;2022-10-30T00:13:34;98218.91;;;14.21;95.19
54910;BME280;63189;51.240;9.964;2022-10-30T00:16:03;98223.25;;;14.22;95.22
54910;BME280;63189;51.240;9.964;2022-10-30T00:18:29;98211.09;;;14.19;95.08
54910;BME280;63189;51.240;9.964;2022-10-30T00:20:54;98215.50;;;14.19;94.86
54910;BME280;63189;51.240;9.964;2022-10-30T00:23:19;98209.44;;;14.16;95.29
54910;BME280;63189;51.240;9.964;2022-10-30T00:25:44;98219.75;;;14.21;94.93
54910;BME280;63189;51.240;9.964;2022-10-30T00:28:10;98218.00;;;14.22;94.81
54910;BME280;63189;51.240;9.964;2022-10-30T00:30:35;98211.97;;;14.20;94.70
54910;BME280;63189;51.240;9.964;2022-10-30T00:33:01;98223.16;;;14.23;94.82
54910;BME280;63189;51.240;9.964;2022-10-30T00:35:26;98213.59;;;14.22;94.71
54910;BME280;63189;51.240;9.964;2022-10-30T00:37:51;98210.44;;;14.14;94.93
54910;BME280;63189;51.240;9.964;2022-10-30T00:40:17;98212.88;;;14.19;95.02
54910;BME280;63189;51.240;9.964;2022-10-30T00:42:42;98210.25;;;14.19;95.21
54910;BME280;63189;51.240;9.964;2022-10-30T00:45:11;98211.91;;;14.21;94.93
54910;BME280;63189;51.240;9.964;2022-10-30T00:47:40;98212.88;;;14.19;95.16
54910;BME280;63189;51.240;9.964;2022-10-30T00:50:24;98204.88;;;14.22;94.90
54910;BME280;63189;51.240;9.964;2022-10-30T00:52:55;98217.06;;;14.23;94.75
54910;BME280;63189;51.240;9.964;2022-10-30T00:55:26;98210.00;;;14.25;94.58
54910;BME280;63189;51.240;9.964;2022-10-30T00:57:55;98214.25;;;14.27;94.56
54910;BME280;63189;51.240;9.964;2022-10-30T01:00:22;98214.22;;;14.29;94.51
54910;BME280;63189;51.240;9.964;2022-10-30T01:02:49;98213.47;;;14.25;94.69
54910;BME280;63189;51.240;9.964;2022-10-30T01:05:17;98220.38;;;14.28;94.52
54910;BME280;63189;51.240;9.964;2022-10-30T01:07:44;98209.06;;;14.26;94.87
54910;BME280;63189;51.240;9.964;2022-10-30T01:10:10;98210.00;;;14.25;94.96
54910;BME280;63189;51.240;9.964;2022-10-30T01:12:37;98200.28;;;14.27;95.06
54910;BME280;63189;51.240;9.964;2022-10-30T01:15:03;98205.28;;;14.33;95.00
54910;BME280;63189;51.240;9.964;2022-10-30T01:17:35;98210.31;;;14.37;94.99
54910;BME280;63189;51.240;9.964;2022-10-30T01:25:44;98208.31;;;14.44;94.76
54910;BME280;63189;51.240;9.964;2022-10-30T01:28:30;98197.72;;;14.47;94.56
54910;BME280;63189;51.240;9.964;2022-10-30T01:38:48;98190.13;;;14.61;93.36
54910;BME280;63189;51.240;9.964;2022-10-30T01:41:15;98195.38;;;14.61;93.56
54910;BME280;63189;51.240;9.964;2022-10-30T01:43:43;98188.47;;;14.59;93.05
54910;BME280;63189;51.240;9.964;2022-10-30T01:46:32;98193.31;;;14.68;92.97
54910;BME280;63189;51.240;9.964;2022-10-30T01:52:25;98198.53;;;14.69;92.81
54910;BME280;63189;51.240;9.964;2022-10-30T02:00:29;98192.75;;;14.82;92.00
54910;BME280;63189;51.240;9.964;2022-10-30T02:02:55;98174.63;;;14.76;91.86
54910;BME280;63189;51.240;9.964;2022-10-30T02:05:30;98178.69;;;14.83;91.63
54910;BME280;63189;51.240;9.964;2022-10-30T02:07:57;98177.06;;;14.80;91.53
54910;BME280;63189;51.240;9.964;2022-10-30T02:10:22;98176.19;;;14.80;91.71
54910;BME280;63189;51.240;9.964;2022-10-30T02:12:48;98168.28;;;14.81;91.74
54910;BME280;63189;51.240;9.964;2022-10-30T02:15:13;98163.88;;;14.82;91.87
54910;BME280;63189;51.240;9.964;2022-10-30T02:17:39;98156.25;;;14.76;91.92
54910;BME280;63189;51.240;9.964;2022-10-30T02:20:06;98166.59;;;14.79;92.27
54910;BME280;63189;51.240;9.964;2022-10-30T02:22:31;98162.34;;;14.76;92.39
54910;BME280;63189;51.240;9.964;2022-10-30T02:24:57;98156.53;;;14.69;92.49
54910;BME280;63189;51.240;9.964;2022-10-30T02:27:22;98165.31;;;14.68;92.53
54910;BME280;63189;51.240;9.964;2022-10-30T02:29:47;98153.25;;;14.64;92.73
54910;BME280;63189;51.240;9.964;2022-10-30T02:32:13;98165.59;;;14.62;93.17
54910;BME280;63189;51.240;9.964;2022-10-30T02:34:39;98168.28;;;14.61;93.37
54910;BME280;63189;51.240;9.964;2022-10-30T02:37:06;98160.59;;;14.56;93.58
54910;BME280;63189;51.240;9.964;2022-10-30T02:39:32;98158.25;;;14.50;93.73
54910;BME280;63189;51.240;9.964;2022-10-30T02:41:58;98169.66;;;14.49;93.75
54910;BME280;63189;51.240;9.964;2022-10-30T02:44:26;98164.41;;;14.49;93.82
54910;BME280;63189;51.240;9.964;2022-10-30T02:46:51;98164.53;;;14.46;94.17
54910;BME280;63189;51.240;9.964;2022-10-30T02:49:16;98164.53;;;14.46;94.32
54910;BME280;63189;51.240;9.964;2022-10-30T02:51:42;98170.94;;;14.39;94.21
54910;BME280;63189;51.240;9.964;2022-10-30T02:54:07;98169.88;;;14.43;94.33
54910;BME280;63189;51.240;9.964;2022-10-30T02:56:33;98163.56;;;14.49;94.19
54910;BME280;63189;51.240;9.964;2022-10-30T02:58:58;98163.69;;;14.46;94.11
54910;BME280;63189;51.240;9.964;2022-10-30T03:01:23;98167.09;;;14.48;94.01
54910;BME280;63189;51.240;9.964;2022-10-30T03:03:49;98162.56;;;14.51;93.82
54910;BME280;63189;51.240;9.964;2022-10-30T03:06:15;98175.47;;;14.56;93.83
54910;BME280;63189;51.240;9.964;2022-10-30T03:08:42;98171.88;;;14.58;93.59
54910;BME280;63189;51.240;9.964;2022-10-30T03:11:13;98167.47;;;14.59;93.32
54910;BME280;63189;51.240;9.964;2022-10-30T03:13:39;98167.53;;;14.57;93.41
54910;BME280;63189;51.240;9.964;2022-10-30T03:16:11;98163.97;;;14.60;93.35
54910;BME280;63189;51.240;9.964;2022-10-30T03:18:37;98177.00;;;14.61;93.27
54910;BME280;63189;51.240;9.964;2022-10-30T03:21:05;98182.25;;;14.61;93.18
54910;BME280;63189;51.240;9.964;2022-10-30T03:23:31;98191.97;;;14.59;93.19
54910;BME280;63189;51.240;9.964;2022-10-30T03:25:57;98172.69;;;14.60;93.04
54910;BME280;63189;51.240;9.964;2022-10-30T03:28:25;98175.94;;;14.65;92.62
54910;BME280;63189;51.240;9.964;2022-10-30T03:30:58;98175.16;;;14.63;91.94
54910;BME280;63189;51.240;9.964;2022-10-30T03:33:23;98172.69;;;14.60;91.80
54910;BME280;63189;51.240;9.964;2022-10-30T03:35:49;98171.53;;;14.66;91.75
54910;BME280;63189;51.240;9.964;2022-10-30T03:38:15;98163.75;;;14.64;91.17
54910;BME280;63189;51.240;9.964;2022-10-30T03:40:40;98181.06;;;14.68;91.05
54910;BME280;63189;51.240;9.964;2022-10-30T03:43:06;98174.03;;;14.69;90.19
54910;BME280;63189;51.240;9.964;2022-10-30T03:45:34;98172.28;;;14.69;90.15
54910;BME280;63189;51.240;9.964;2022-10-30T03:48:04;98172.31;;;14.68;89.84
54910;BME280;63189;51.240;9.964;2022-10-30T03:50:30;98169.69;;;14.68;89.71
54910;BME280;63189;51.240;9.964;2022-10-30T03:52:56;98163.53;;;14.69;89.42
54910;BME280;63189;51.240;9.964;2022-10-30T03:55:23;98176.31;;;14.77;89.47
54910;BME280;63189;51.240;9.964;2022-10-30T03:57:49;98161.34;;;14.79;89.52
54910;BME280;63189;51.240;9.964;2022-10-30T04:00:15;98165.97;;;14.73;89.34
54910;BME280;63189;51.240;9.964;2022-10-30T04:02:46;98174.69;;;14.74;89.55
54910;BME280;63189;51.240;9.964;2022-10-30T04:05:15;98176.53;;;14.72;89.72
54910;BME280;63189;51.240;9.964;2022-10-30T04:07:41;98176.72;;;14.67;90.10
54910;BME280;63189;51.240;9.964;2022-10-30T04:10:07;98177.78;;;14.63;90.36
54910;BME280;63189;51.240;9.964;2022-10-30T04:12:33;98167.75;;;14.53;91.20
54910;BME280;63189;51.240;9.964;2022-10-30T04:14:58;98174.63;;;14.55;91.07
54910;BME280;63189;51.240;9.964;2022-10-30T04:17:24;98167.94;;;14.48;91.73
54910;BME280;63189;51.240;9.964;2022-10-30T04:19:49;98175.09;;;14.44;91.83
54910;BME280;63189;51.240;9.964;2022-10-30T04:22:14;98174.16;;;14.46;91.37
54910;BME280;63189;51.240;9.964;2022-10-30T04:24:39;98173.50;;;14.40;91.42
54910;BME280;63189;51.240;9.964;2022-10-30T04:27:05;98165.88;;;14.34;91.72
54910;BME280;63189;51.240;9.964;2022-10-30T04:29:30;98158.78;;;14.16;92.09
54910;BME280;63189;51.240;9.964;2022-10-30T04:31:56;98157.97;;;14.14;92.17
54910;BME280;63189;51.240;9.964;2022-10-30T04:34:21;98166.91;;;14.10;91.98
54910;BME280;63189;51.240;9.964;2022-10-30T04:36:48;98158.56;;;14.00;92.33
54910;BME280;63189;51.240;9.964;2022-10-30T04:39:13;98158.00;;;13.92;92.43
54910;BME280;63189;51.240;9.964;2022-10-30T04:41:38;98159.97;;;13.87;93.05
54910;BME280;63189;51.240;9.964;2022-10-30T04:44:04;98160.09;;;13.84;92.88
54910;BME280;63189;51.240;9.964;2022-10-30T04:46:30;98153.81;;;13.88;92.90
54910;BME280;63189;51.240;9.964;2022-10-30T04:48:56;98147.03;;;13.82;93.13
54910;BME280;63189;51.240;9.964;2022-10-30T04:51:22;98151.19;;;13.88;93.01
54910;BME280;63189;51.240;9.964;2022-10-30T04:53:48;98165.22;;;13.87;93.31
54910;BME280;63189;51.240;9.964;2022-10-30T04:56:13;98160.34;;;13.78;93.48
54910;BME280;63189;51.240;9.964;2022-10-30T04:58:39;98154.50;;;13.71;94.50
54910;BME280;63189;51.240;9.964;2022-10-30T05:01:05;98156.56;;;13.63;94.90
54910;BME280;63189;51.240;9.964;2022-10-30T05:03:31;98143.66;;;13.58;94.30
54910;BME280;63189;51.240;9.964;2022-10-30T05:06:14;98147.06;;;13.61;94.31
54910;BME280;63189;51.240;9.964;2022-10-30T05:08:42;98149.13;;;13.52;94.73
54910;BME280;63189;51.240;9.964;2022-10-30T05:11:07;98155.94;;;13.35;96.39
54910;BME280;63189;51.240;9.964;2022-10-30T05:13:32;98154.28;;;13.32;96.73
54910;BME280;63189;51.240;9.964;2022-10-30T05:15:58;98148.38;;;13.27;96.89
54910;BME280;63189;51.240;9.964;2022-10-30T05:18:23;98158.97;;;13.24;96.90
54910;BME280;63189;51.240;9.964;2022-10-30T05:20:48;98153.03;;;13.19;97.36
54910;BME280;63189;51.240;9.964;2022-10-30T05:23:14;98150.56;;;13.14;97.80
54910;BME280;63189;51.240;9.964;2022-10-30T05:25:39;98153.28;;;13.11;97.57
54910;BME280;63189;51.240;9.964;2022-10-30T05:28:05;98151.50;;;13.13;98.13
54910;BME280;63189;51.240;9.964;2022-10-30T05:30:32;98151.44;;;13.15;97.65
54910;BME280;63189;51.240;9.964;2022-10-30T05:32:59;98143.56;;;13.15;97.68
54910;BME280;63189;51.240;9.964;2022-10-30T05:35:25;98152.34;;;13.14;97.78
54910;BME280;63189;51.240;9.964;2022-10-30T05:37:51;98147.31;;;13.08;98.05
54910;BME280;63189;51.240;9.964;2022-10-30T05:40:16;98152.44;;;13.11;97.62
54910;BME280;63189;51.240;9.964;2022-10-30T05:42:46;98156.22;;;13.04;98.74
54910;BME280;63189;51.240;9.964;2022-10-30T05:45:12;98143.34;;;12.97;98.22
54910;BME280;63189;51.240;9.964;2022-10-30T05:47:37;98154.94;;;12.90;99.50
54910;BME280;63189;51.240;9.964;2022-10-30T05:50:04;98153.22;;;12.89;99.89
54910;BME280;63189;51.240;9.964;2022-10-30T05:52:29;98152.56;;;12.84;100.00
54910;BME280;63189;51.240;9.964;2022-10-30T05:54:54;98152.56;;;12.84;100.00
54910;BME280;63189;51.240;9.964;2022-10-30T05:57:20;98152.44;;;12.87;100.00
54910;BME280;63189;51.240;9.964;2022-10-30T05:59:45;98156.81;;;12.87;100.00
54910;BME280;63189;51.240;9.964;2022-10-30T06:02:11;98151.53;;;12.88;100.00
54910;BME280;63189;51.240;9.964;2022-10-30T06:04:36;98145.44;;;12.88;100.00
54910;BME280;63189;51.240;9.964;2022-10-30T06:07:01;98151.31;;;12.94;99.86
54910;BME280;63189;51.240;9.964;2022-10-30T06:09:27;98152.91;;;12.98;99.59
54910;BME280;63189;51.240;9.964;2022-10-30T06:11:52;98172.13;;;12.97;99.82
54910;BME280;63189;51.240;9.964;2022-10-30T06:14:18;98171.41;;;12.94;100.00
54910;BME280;63189;51.240;9.964;2022-10-30T06:16:43;98165.31;;;12.93;99.92
54910;BME280;63189;51.240;9.964;2022-10-30T06:19:08;98166.03;;;12.97;99.49
54910;BME280;63189;51.240;9.964;2022-10-30T06:21:34;98172.84;;;13.01;99.10
54910;BME280;63189;51.240;9.964;2022-10-30T06:23:59;98167.59;;;13.03;98.95
54910;BME280;63189;51.240;9.964;2022-10-30T06:26:25;98151.25;;;12.96;98.47
54910;BME280;63189;51.240;9.964;2022-10-30T06:28:50;98168.38;;;13.05;98.75
54910;BME280;63189;51.240;9.964;2022-10-30T06:31:16;98163.31;;;13.00;98.02
54910;BME280;63189;51.240;9.964;2022-10-30T06:33:41;98154.72;;;12.96;98.17
54910;BME280;63189;51.240;9.964;2022-10-30T06:36:06;98166.91;;;12.97;98.08
54910;BME280;63189;51.240;9.964;2022-10-30T06:38:32;98168.53;;;13.00;97.57
54910;BME280;63189;51.240;9.964;2022-10-30T06:40:57;98172.78;;;13.04;98.08
54910;BME280;63189;51.240;9.964;2022-10-30T06:43:23;98177.03;;;13.07;97.62
54910;BME280;63189;51.240;9.964;2022-10-30T06:45:48;98178.72;;;13.08;97.47
54910;BME280;63189;51.240;9.964;2022-10-30T06:48:14;98177.03;;;13.07;97.59
54910;BME280;63189;51.240;9.964;2022-10-30T06:50:39;98188.22;;;13.10;97.52
54910;BME280;63189;51.240;9.964;2022-10-30T06:53:05;98180.44;;;13.09;97.62
54910;BME280;63189;51.240;9.964;2022-10-30T06:55:31;98185.72;;;13.07;97.91
54910;BME280;63189;51.240;9.964;2022-10-30T06:57:56;98176.13;;;13.08;97.76
54910;BME280;63189;51.240;9.964;2022-10-30T07:00:22;98179.22;;;13.19;97.31
54910;BME280;63189;51.240;9.964;2022-10-30T07:02:55;98180.94;;;13.20;96.83
54910;BME280;63189;51.240;9.964;2022-10-30T07:05:21;98172.09;;;13.22;96.51
54910;BME280;63189;51.240;9.964;2022-10-30T07:07:46;98178.66;;;13.34;95.92
54910;BME280;63189;51.240;9.964;2022-10-30T07:10:11;98178.19;;;13.46;95.40
54910;BME280;63189;51.240;9.964;2022-10-30T07:12:37;98167.88;;;13.64;93.79
54910;BME280;63189;51.240;9.964;2022-10-30T07:15:02;98191.72;;;13.79;93.57
54910;BME280;63189;51.240;9.964;2022-10-30T07:17:28;98190.38;;;13.91;92.64
54910;BME280;63189;51.240;9.964;2022-10-30T07:19:53;98199.59;;;14.01;93.19
54910;BME280;63189;51.240;9.964;2022-10-30T07:22:18;98189.72;;;14.08;91.58
54910;BME280;63189;51.240;9.964;2022-10-30T07:24:44;98183.41;;;14.12;92.07
54910;BME280;63189;51.240;9.964;2022-10-30T07:27:09;98210.00;;;14.25;91.25
54910;BME280;63189;51.240;9.964;2022-10-30T07:29:35;98206.75;;;14.40;91.01
54910;BME280;63189;51.240;9.964;2022-10-30T07:32:00;98200.31;;;14.49;90.07
54910;BME280;63189;51.240;9.964;2022-10-30T07:34:25;98210.00;;;14.67;89.47
54910;BME280;63189;51.240;9.964;2022-10-30T07:36:50;98216.56;;;14.77;88.36
54910;BME280;63189;51.240;9.964;2022-10-30T07:39:16;98215.16;;;14.89;88.45
54910;BME280;63189;51.240;9.964;2022-10-30T07:41:41;98214.72;;;14.79;88.48
54910;BME280;63189;51.240;9.964;2022-10-30T07:44:06;98215.06;;;14.92;88.29
54910;BME280;63189;51.240;9.964;2022-10-30T07:46:32;98215.53;;;15.00;87.97
54910;BME280;63189;51.240;9.964;2022-10-30T07:48:57;98219.47;;;15.10;87.53
54910;BME280;63189;51.240;9.964;2022-10-30T07:51:23;98206.38;;;15.29;86.25
54910;BME280;63189;51.240;9.964;2022-10-30T07:53:49;98214.41;;;15.45;85.67
54910;BME280;63189;51.240;9.964;2022-10-30T07:56:14;98206.91;;;15.75;84.54
54910;BME280;63189;51.240;9.964;2022-10-30T07:58:39;98210.41;;;16.11;83.70
54910;BME280;63189;51.240;9.964;2022-10-30T08:01:05;98210.72;;;16.23;82.37
54910;BME280;63189;51.240;9.964;2022-10-30T08:03:30;98212.44;;;16.41;81.67
54910;BME280;63189;51.240;9.964;2022-10-30T08:05:55;98217.22;;;16.69;79.85
54910;BME280;63189;51.240;9.964;2022-10-30T08:08:20;98211.16;;;16.84;79.44
54910;BME280;63189;51.240;9.964;2022-10-30T08:10:46;98209.16;;;16.89;78.90
54910;BME280;63189;51.240;9.964;2022-10-30T08:13:11;98212.66;;;17.06;77.60
54910;BME280;63189;51.240;9.964;2022-10-30T08:15:38;98208.09;;;17.42;78.22
54910;BME280;63189;51.240;9.964;2022-10-30T08:18:03;98209.50;;;17.81;76.34
54910;BME280;63189;51.240;9.964;2022-10-30T08:20:29;98209.13;;;18.03;76.14
54910;BME280;63189;51.240;9.964;2022-10-30T08:22:56;98209.59;;;17.95;74.15
54910;BME280;63189;51.240;9.964;2022-10-30T08:25:28;98220.47;;;18.05;72.28
54910;BME280;63189;51.240;9.964;2022-10-30T08:28:02;98216.09;;;18.20;74.58
54910;BME280;63189;51.240;9.964;2022-10-30T08:30:32;98201.16;;;18.04;73.70
54910;BME280;63189;51.240;9.964;2022-10-30T08:32:59;98200.91;;;17.93;74.24
54910;BME280;63189;51.240;9.964;2022-10-30T08:35:25;98199.47;;;17.87;74.73
54910;BME280;63189;51.240;9.964;2022-10-30T08:37:58;98188.00;;;17.73;74.33
54910;BME280;63189;51.240;9.964;2022-10-30T08:40:25;98205.59;;;17.88;75.67
54910;BME280;63189;51.240;9.964;2022-10-30T08:42:51;98203.03;;;17.86;75.23
54910;BME280;63189;51.240;9.964;2022-10-30T08:45:17;98202.16;;;17.70;73.20
54910;BME280;63189;51.240;9.964;2022-10-30T08:47:43;98206.19;;;17.77;74.99
54910;BME280;63189;51.240;9.964;2022-10-30T08:50:08;98207.03;;;17.78;74.02
54910;BME280;63189;51.240;9.964;2022-10-30T08:52:34;98208.56;;;17.82;74.24
54910;BME280;63189;51.240;9.964;2022-10-30T08:54:59;98195.53;;;17.79;74.68
54910;BME280;63189;51.240;9.964;2022-10-30T08:57:25;98191.28;;;17.76;74.73
54910;BME280;63189;51.240;9.964;2022-10-30T08:59:52;98197.22;;;17.64;73.67
54910;BME280;63189;51.240;9.964;2022-10-30T09:02:17;98196.56;;;17.76;73.34
54910;BME280;63189;51.240;9.964;2022-10-30T09:04:42;98190.28;;;17.95;73.87
54910;BME280;63189;51.240;9.964;2022-10-30T09:07:08;98180.50;;;18.27;73.30
54910;BME280;63189;51.240;9.964;2022-10-30T09:09:33;98181.50;;;18.40;71.21
54910;BME280;63189;51.240;9.964;2022-10-30T09:11:58;98175.88;;;18.46;72.55
54910;BME280;63189;51.240;9.964;2022-10-30T09:14:24;98177.59;;;18.61;72.39
54910;BME280;63189;51.240;9.964;2022-10-30T09:16:49;98177.44;;;18.64;71.21
54910;BME280;63189;51.240;9.964;2022-10-30T09:19:14;98182.31;;;18.56;71.24
54910;BME280;63189;51.240;9.964;2022-10-30T09:21:40;98188.78;;;18.51;69.84
54910;BME280;63189;51.240;9.964;2022-10-30T09:24:05;98195.13;;;18.62;70.39
54910;BME280;63189;51.240;9.964;2022-10-30T09:26:34;98200.59;;;18.59;71.10
54910;BME280;63189;51.240;9.964;2022-10-30T09:28:59;98191.31;;;18.68;71.06
54910;BME280;63189;51.240;9.964;2022-10-30T09:31:24;98190.63;;;18.64;69.75
54910;BME280;63189;51.240;9.964;2022-10-30T09:33:50;98199.16;;;18.69;70.32
54910;BME280;63189;51.240;9.964;2022-10-30T09:36:15;98180.66;;;18.84;69.85
54910;BME280;63189;51.240;9.964;2022-10-30T09:38:40;98197.31;;;19.00;69.25
54910;BME280;63189;51.240;9.964;2022-10-30T09:44:09;98192.03;;;19.43;67.64
54910;BME280;63189;51.240;9.964;2022-10-30T09:46:49;98196.75;;;19.66;67.88
54910;BME280;63189;51.240;9.964;2022-10-30T09:49:30;98193.47;;;19.89;67.84
54910;BME280;63189;51.240;9.964;2022-10-30T09:57:55;98193.78;;;20.12;65.94
54910;BME280;63189;51.240;9.964;2022-10-30T10:00:47;98196.88;;;20.18;65.19
54910;BME280;63189;51.240;9.964;2022-10-30T10:03:26;98199.56;;;20.31;65.56
54910;BME280;63189;51.240;9.964;2022-10-30T10:05:58;98189.31;;;20.39;65.24
54910;BME280;63189;51.240;9.964;2022-10-30T10:08:36;98196.16;;;20.43;64.09
54910;BME280;63189;51.240;9.964;2022-10-30T10:11:09;98193.50;;;20.43;64.51
54910;BME280;63189;51.240;9.964;2022-10-30T10:13:42;98190.31;;;20.51;63.11
54910;BME280;63189;51.240;9.964;2022-10-30T10:16:16;98181.66;;;20.62;64.61
54910;BME280;63189;51.240;9.964;2022-10-30T10:19:09;98188.81;;;20.74;62.45
54910;BME280;63189;51.240;9.964;2022-10-30T10:22:20;98199.19;;;20.77;63.97
54910;BME280;63189;51.240;9.964;2022-10-30T10:24:39;98183.16;;;20.91;64.77
54910;BME280;63189;51.240;9.964;2022-10-30T10:30:07;98178.50;;;21.20;63.48
54910;BME280;63189;51.240;9.964;2022-10-30T10:38:38;98178.72;;;21.43;64.97
54910;BME280;63189;51.240;9.964;2022-10-30T10:46:50;98175.06;;;21.56;64.47
54910;BME280;63189;51.240;9.964;2022-10-30T10:49:27;98187.41;;;21.57;64.06
54910;BME280;63189;51.240;9.964;2022-10-30T10:52:03;98184.41;;;21.62;63.24
54910;BME280;63189;51.240;9.964;2022-10-30T10:54:39;98188.44;;;21.68;65.65
54910;BME280;63189;51.240;9.964;2022-10-30T10:57:06;98174.03;;;21.59;63.15
54910;BME280;63189;51.240;9.964;2022-10-30T10:59:41;98175.91;;;21.57;63.51
54910;BME280;63189;51.240;9.964;2022-10-30T11:04:46;98176.78;;;21.57;63.40
54910;BME280;63189;51.240;9.964;2022-10-30T11:07:24;98174.44;;;21.53;61.91
54910;BME280;63189;51.240;9.964;2022-10-30T11:09:52;98180.59;;;21.53;61.93
54910;BME280;63189;51.240;9.964;2022-10-30T11:12:22;98181.06;;;21.47;62.08
54910;BME280;63189;51.240;9.964;2022-10-30T11:14:49;98174.69;;;21.50;64.31
54910;BME280;63189;51.240;9.964;2022-10-30T11:17:23;98166.19;;;21.45;63.32
54910;BME280;63189;51.240;9.964;2022-10-30T11:19:53;98175.66;;;21.49;64.19
54910;BME280;63189;51.240;9.964;2022-10-30T11:22:32;98176.78;;;21.57;64.59
54910;BME280;63189;51.240;9.964;2022-10-30T11:27:48;98172.53;;;21.55;63.04
54910;BME280;63189;51.240;9.964;2022-10-30T11:30:19;98170.00;;;21.53;64.72
54910;BME280;63189;51.240;9.964;2022-10-30T11:32:45;98166.47;;;21.66;67.02
54910;BME280;63189;51.240;9.964;2022-10-30T11:35:16;98163.63;;;21.56;64.54
54910;BME280;63189;51.240;9.964;2022-10-30T11:37:43;98162.97;;;21.65;65.64
54910;BME280;63189;51.240;9.964;2022-10-30T11:43:02;98155.56;;;21.57;61.82
54910;BME280;63189;51.240;9.964;2022-10-30T11:45:35;98160.66;;;21.60;62.80
54910;BME280;63189;51.240;9.964;2022-10-30T11:48:09;98158.50;;;21.66;63.12
54910;BME280;63189;51.240;9.964;2022-10-30T11:50:36;98157.94;;;21.73;62.78
54910;BME280;63189;51.240;9.964;2022-10-30T11:53:18;98152.59;;;21.86;63.76
54910;BME280;63189;51.240;9.964;2022-10-30T11:55:47;98148.66;;;21.92;63.94
54910;BME280;63189;51.240;9.964;2022-10-30T11:58:33;98152.88;;;21.94;62.08
54910;BME280;63189;51.240;9.964;2022-10-30T12:01:20;98145.88;;;21.93;62.67
54910;BME280;63189;51.240;9.964;2022-10-30T12:03:46;98141.75;;;21.89;62.16
54910;BME280;63189;51.240;9.964;2022-10-30T12:09:18;98143.22;;;21.93;61.08
54910;BME280;63189;51.240;9.964;2022-10-30T12:11:44;98135.09;;;21.83;62.14
54910;BME280;63189;51.240;9.964;2022-10-30T12:14:19;98131.06;;;21.78;63.38
54910;BME280;63189;51.240;9.964;2022-10-30T12:16:48;98138.09;;;21.79;63.35
54910;BME280;63189;51.240;9.964;2022-10-30T12:19:15;98130.97;;;21.79;64.25
54910;BME280;63189;51.240;9.964;2022-10-30T12:21:46;98146.13;;;21.90;64.80
54910;BME280;63189;51.240;9.964;2022-10-30T12:24:20;98136.34;;;21.90;63.05
54910;BME280;63189;51.240;9.964;2022-10-30T12:26:48;98132.72;;;21.92;64.44
54910;BME280;63189;51.240;9.964;2022-10-30T12:29:17;98125.13;;;21.98;64.24
54910;BME280;63189;51.240;9.964;2022-10-30T12:32:01;98128.53;;;22.00;61.80
54910;BME280;63189;51.240;9.964;2022-10-30T12:34:54;98128.44;;;22.02;62.00
54910;BME280;63189;51.240;9.964;2022-10-30T12:37:35;98130.84;;;22.05;62.82
54910;BME280;63189;51.240;9.964;2022-10-30T12:40:14;98125.44;;;22.06;61.56
54910;BME280;63189;51.240;9.964;2022-10-30T12:42:58;98123.00;;;22.03;61.79
54910;BME280;63189;51.240;9.964;2022-10-30T12:45:31;98126.38;;;22.05;62.31
54910;BME280;63189;51.240;9.964;2022-10-30T12:48:10;98122.38;;;22.00;61.06
54910;BME280;63189;51.240;9.964;2022-10-30T12:53:45;98108.28;;;21.99;61.62
54910;BME280;63189;51.240;9.964;2022-10-30T12:56:17;98113.78;;;21.96;61.71
54910;BME280;63189;51.240;9.964;2022-10-30T12:58:53;98116.44;;;21.96;61.92
54910;BME280;63189;51.240;9.964;2022-10-30T13:02:25;98113.28;;;21.91;61.69
54910;BME280;63189;51.240;9.964;2022-10-30T13:04:32;98107.75;;;21.94;63.56
54910;BME280;63189;51.240;9.964;2022-10-30T13:07:19;98105.69;;;21.98;62.54
54910;BME280;63189;51.240;9.964;2022-10-30T13:12:37;98101.94;;;21.89;57.84
54910;BME280;63189;51.240;9.964;2022-10-30T13:15:05;98098.09;;;21.93;59.72
54910;BME280;63189;51.240;9.964;2022-10-30T13:17:34;98101.81;;;21.90;59.38
54910;BME280;63189;51.240;9.964;2022-10-30T13:19:59;98097.47;;;21.89;58.03
54910;BME280;63189;51.240;9.964;2022-10-30T13:22:27;98099.50;;;21.86;58.40
54910;BME280;63189;51.240;9.964;2022-10-30T13:25:10;98095.28;;;21.83;57.56
54910;BME280;63189;51.240;9.964;2022-10-30T13:33:10;98084.53;;;21.85;59.40
54910;BME280;63189;51.240;9.964;2022-10-30T13:38:34;98088.88;;;21.86;59.19
54910;BME280;63189;51.240;9.964;2022-10-30T13:41:17;98086.22;;;21.86;60.54
54910;BME280;63189;51.240;9.964;2022-10-30T13:44:03;98090.38;;;21.90;62.19
54910;BME280;63189;51.240;9.964;2022-10-30T13:46:54;98087.81;;;21.88;60.94
54910;BME280;63189;51.240;9.964;2022-10-30T13:52:13;98085.19;;;21.88;62.00
54910;BME280;63189;51.240;9.964;2022-10-30T13:54:45;98093.69;;;21.81;61.58
54910;BME280;63189;51.240;9.964;2022-10-30T14:05:19;98088.53;;;21.67;61.04
54910;BME280;63189;51.240;9.964;2022-10-30T14:10:21;98086.34;;;21.60;60.76
54910;BME280;63189;51.240;9.964;2022-10-30T14:13:06;98080.31;;;21.58;59.58
54910;BME280;63189;51.240;9.964;2022-10-30T14:15:33;98079.06;;;21.51;61.40
54910;BME280;63189;51.240;9.964;2022-10-30T14:20:52;98081.19;;;21.46;63.79
54910;BME280;63189;51.240;9.964;2022-10-30T14:23:24;98080.06;;;21.38;61.94
54910;BME280;63189;51.240;9.964;2022-10-30T14:28:28;98076.50;;;21.26;60.96
54910;BME280;63189;51.240;9.964;2022-10-30T14:31:09;98087.28;;;21.23;61.03
54910;BME280;63189;51.240;9.964;2022-10-30T14:33:44;98080.50;;;21.19;61.37
54910;BME280;63189;51.240;9.964;2022-10-30T14:36:21;98075.84;;;21.10;60.06
54910;BME280;63189;51.240;9.964;2022-10-30T14:38:58;98061.34;;;21.02;59.07